Digges, Canada
Current Conditions -  °F | °C
As of 1:00 PM on Friday 28 Nov 2014 (Local Time) from CYYQ Reporting Station
Blowing Snow Blowing Snow  
Wind Chill: -34°   Ceiling: Unl
Heat Index: -11°   Visibility: 15mi
Dew Point: -18°   Wind: 16mph
Humidity: 70%   Direction: 290°WNW
Pressure: 30.02"   Gusts: 22mph
Location:  58.57°N, 94.12°W
Report Text: CYYQ 281900Z 29014G19KT 15SM IC DRSN FEW003 M24/M28 A3002 RMK SF1 SLP169
Loading
Personal Weather Stations






























Interactive Weather Map New forecast layout! Learn more

10-Day Weather Forecast

Advertisements
Track Severe Weather on mobile